Time;durP1;ratioP1;P1;durP2;ratioP2;P2;SDS_P1;SDS_P2;PMS_P1;PMS_P2;Temp;Humidity;BMP_temperature;BMP_pressure;BME280_temperature;BME280_humidity;BME280_pressure;Samples;Min_cycle;Max_cycle;Signal;HPM_P1;HPM_P2
2022/12/14 00:01:24;;;;;;;11.82;11.32;;;2.30;95.20;;;;;;5029468;28;20064;-76
2022/12/14 00:03:50;;;;;;;13.90;13.30;;;2.30;95.30;;;;;;5046100;28;20755;-77
2022/12/14 00:06:22;;;;;;;12.90;12.30;;;2.40;95.40;;;;;;5047206;28;20021;-76
2022/12/14 00:08:49;;;;;;;12.65;12.05;;;2.60;95.50;;;;;;5045889;28;20036;-77
2022/12/14 00:11:18;;;;;;;9.43;8.95;;;2.70;95.40;;;;;;5045867;28;20029;-76
2022/12/14 00:13:44;;;;;;;10.70;10.20;;;2.80;95.30;;;;;;5047318;28;20052;-76
2022/12/14 00:16:14;;;;;;;10.90;10.40;;;2.70;95.10;;;;;;5047246;28;20033;-76
2022/12/14 00:18:40;;;;;;;8.00;7.60;;;2.70;95.10;;;;;;5046993;28;20028;-77
2022/12/14 00:21:08;;;;;;;8.05;7.65;;;2.70;95.20;;;;;;5028994;28;20053;-77
2022/12/14 00:23:35;;;;;;;5.35;5.05;;;2.80;95.20;;;;;;5047146;28;20413;-76
2022/12/14 00:26:12;;;;;;;7.38;6.97;;;2.70;95.10;;;;;;5047068;28;20296;-77
2022/12/14 00:28:38;;;;;;;;;;;2.70;95.20;;;;;;5046092;28;20028;-77
2022/12/14 00:31:04;;;;;;;5.93;5.63;;;2.80;95.30;;;;;;5047072;28;19913;-76
2022/12/14 00:33:30;;;;;;;5.10;4.80;;;2.80;95.20;;;;;;5029612;28;20067;-77
2022/12/14 00:35:56;;;;;;;4.88;4.57;;;2.90;95.30;;;;;;5045980;28;20057;-77
2022/12/14 00:38:21;;;;;;;3.85;3.55;;;2.90;95.30;;;;;;5029145;28;20029;-77
2022/12/14 00:40:47;;;;;;;4.22;3.92;;;3.00;95.30;;;;;;5029088;28;20435;-77
2022/12/14 00:43:13;;;;;;;3.85;3.55;;;3.10;95.30;;;;;;5029306;28;20091;-77
2022/12/14 00:45:38;;;;;;;4.95;4.65;;;3.10;95.30;;;;;;5029043;28;20037;-76
2022/12/14 00:48:04;;;;;;;3.20;3.00;;;3.20;95.30;;;;;;5045622;28;20103;-77
2022/12/14 00:50:30;;;;;;;3.10;2.90;;;3.20;95.30;;;;;;5045531;28;20094;-76
2022/12/14 00:52:56;;;;;;;3.10;2.90;;;3.30;95.30;;;;;;5046892;28;20025;-76
2022/12/14 00:55:21;;;;;;;3.10;2.90;;;3.30;95.30;;;;;;5047738;28;20037;-76
2022/12/14 00:57:47;;;;;;;3.90;3.60;;;3.40;95.30;;;;;;5033026;28;20355;-77
2022/12/14 01:00:15;;;;;;;3.50;3.20;;;3.40;95.30;;;;;;5032954;28;20261;-76
2022/12/14 01:02:41;;;;;;;2.85;2.65;;;3.50;95.30;;;;;;5050482;28;20359;-77
2022/12/14 01:05:07;;;;;;;3.33;3.03;;;3.50;95.30;;;;;;5049442;28;20035;-77
2022/12/14 01:07:32;;;;;;;3.63;3.33;;;3.50;95.30;;;;;;5049210;28;20188;-76
2022/12/14 01:09:58;;;;;;;3.15;2.95;;;3.50;95.20;;;;;;5049085;28;20142;-77
2022/12/14 01:12:24;;;;;;;3.92;3.63;;;3.40;95.10;;;;;;5049125;28;20477;-77
2022/12/14 01:14:49;;;;;;;3.92;3.63;;;3.40;95.10;;;;;;5050209;28;20029;-76
2022/12/14 01:17:15;;;;;;;3.50;3.20;;;3.30;95.10;;;;;;5050176;28;20447;-76
2022/12/14 01:19:41;;;;;;;4.00;3.70;;;3.30;95.20;;;;;;5032349;28;20029;-76
2022/12/14 01:22:06;;;;;;;3.90;3.60;;;3.20;95.20;;;;;;5048971;28;20071;-77
2022/12/14 01:24:32;;;;;;;3.65;3.35;;;3.10;95.20;;;;;;5050210;28;20075;-77
2022/12/14 01:26:58;;;;;;;2.90;2.70;;;3.10;95.30;;;;;;5048851;28;20035;-77
2022/12/14 01:29:23;;;;;;;2.70;2.50;;;3.00;95.20;;;;;;5048640;28;20033;-77
2022/12/14 01:31:49;;;;;;;3.50;3.20;;;3.00;95.10;;;;;;5048817;28;20056;-77
2022/12/14 01:34:15;;;;;;;2.92;2.72;;;2.80;95.00;;;;;;5048678;28;20068;-77
2022/12/14 01:36:41;;;;;;;3.50;3.20;;;2.80;95.10;;;;;;5015602;28;20025;-76
2022/12/14 01:39:12;;;;;;;3.80;3.50;;;2.70;95.10;;;;;;5048520;28;20040;-76
2022/12/14 01:41:48;;;;;;;3.53;3.22;;;2.60;95.10;;;;;;5048507;28;20473;-77
2022/12/14 01:44:13;;;;;;;3.25;3.05;;;2.50;95.10;;;;;;5049887;28;20049;-76
2022/12/14 01:46:55;;;;;;;4.10;3.80;;;2.40;95.00;;;;;;5048423;28;20057;-76
2022/12/14 01:49:30;;;;;;;4.15;3.85;;;2.30;95.00;;;;;;5048400;28;20052;-76
2022/12/14 01:52:03;;;;;;;4.13;3.83;;;2.20;94.90;;;;;;5049604;28;20029;-76
2022/12/14 01:54:31;;;;;;;4.65;4.35;;;2.10;94.90;;;;;;5049589;28;20432;-76
2022/12/14 01:56:58;;;;;;;4.50;4.20;;;2.00;94.90;;;;;;5048446;28;20024;-77
2022/12/14 01:59:32;;;;;;;4.57;4.28;;;2.00;94.90;;;;;;5048193;28;20492;-77
2022/12/14 02:02:04;;;;;;;4.05;3.75;;;1.90;94.90;;;;;;5049867;28;20025;-77
2022/12/14 02:04:30;;;;;;;4.80;4.50;;;1.80;94.90;;;;;;5049414;28;20017;-77
2022/12/14 02:06:55;;;;;;;;;;;1.70;94.90;;;;;;5047448;28;20104;-77
2022/12/14 02:09:26;;;;;;;3.58;3.28;;;1.70;94.90;;;;;;5031538;28;20016;-77
2022/12/14 02:12:18;;;;;;;3.88;3.58;;;1.60;94.80;;;;;;5048343;28;20032;-77
2022/12/14 02:14:45;;;;;;;4.43;4.13;;;1.60;94.90;;;;;;5049640;28;20039;-77
2022/12/14 02:17:12;;;;;;;;;;;1.60;94.90;;;;;;5050053;28;20056;-77
2022/12/14 02:19:38;;;;;;;3.20;3.00;;;1.50;94.80;;;;;;5049243;28;20433;-76
2022/12/14 02:22:24;;;;;;;;;;;1.50;94.80;;;;;;5049986;28;20072;-77
2022/12/14 02:25:32;;;;;;;5.03;4.72;;;1.50;94.80;;;;;;5046584;28;19911;-77
2022/12/14 02:28:33;;;;;;;5.68;5.38;;;1.40;94.80;;;;;;5048039;28;20067;-77
2022/12/14 02:31:11;;;;;;;5.80;5.50;;;1.30;94.70;;;;;;5010159;28;20346;-77
2022/12/14 02:33:48;;;;;;;5.38;5.07;;;1.30;94.70;;;;;;5043240;28;20033;-77
2022/12/14 02:36:32;;;;;;;6.40;6.03;;;1.30;94.80;;;;;;5049554;28;20427;-77
2022/12/14 02:39:07;;;;;;;7.63;7.22;;;1.20;94.70;;;;;;5049077;28;20118;-77
2022/12/14 02:41:57;;;;;;;8.52;8.13;;;1.20;94.70;;;;;;5049159;28;20036;-77
2022/12/14 02:44:56;;;;;;;9.13;8.73;;;1.20;94.70;;;;;;5049273;28;20044;-77
2022/12/14 02:47:26;;;;;;;10.13;9.63;;;1.10;94.70;;;;;;5047620;28;20021;-77
2022/12/14 02:50:07;;;;;;;9.48;9.00;;;1.10;94.70;;;;;;5049080;28;20025;-77
2022/12/14 02:53:02;;;;;;;10.07;9.57;;;1.10;94.70;;;;;;5047584;28;20025;-78
2022/12/14 02:55:39;;;;;;;12.80;12.20;;;1.10;94.70;;;;;;5048764;28;20056;-78
2022/12/14 02:58:16;;;;;;;13.35;12.75;;;1.00;94.60;;;;;;5047757;28;20046;-78
2022/12/14 03:00:42;;;;;;;13.50;12.90;;;1.00;94.60;;;;;;5048917;28;20088;-78
2022/12/14 03:03:08;;;;;;;14.13;13.52;;;1.00;94.60;;;;;;5047361;28;20025;-78
2022/12/14 03:05:34;;;;;;;16.13;15.43;;;1.00;94.60;;;;;;5047613;28;20385;-78
2022/12/14 03:08:12;;;;;;;15.55;14.85;;;0.90;94.60;;;;;;5047755;28;20099;-78
2022/12/14 03:10:47;;;;;;;17.05;16.35;;;0.90;94.60;;;;;;5048460;28;20028;-78
2022/12/14 03:13:35;;;;;;;18.67;17.88;;;0.80;94.60;;;;;;5047237;28;20222;-78
2022/12/14 03:16:13;;;;;;;19.05;18.25;;;0.80;94.70;;;;;;5047318;28;20029;-78
2022/12/14 03:19:16;;;;;;;20.42;19.63;;;0.80;94.80;;;;;;5047743;28;20151;-80
2022/12/14 03:22:29;;;;;;;19.73;18.92;;;0.80;94.90;;;;;;5041861;28;20041;-80
2022/12/14 03:25:01;;;;;;;23.30;22.40;;;0.80;94.90;;;;;;5044974;28;20067;-80
2022/12/14 03:27:33;;;;;;;23.23;22.33;;;0.80;94.90;;;;;;5048115;28;20028;-80
2022/12/14 03:30:04;;;;;;;21.02;20.23;;;0.80;94.90;;;;;;5047955;28;20021;-80
2022/12/14 03:32:32;;;;;;;20.08;19.27;;;0.80;94.80;;;;;;5047941;28;20021;-80
2022/12/14 03:35:08;;;;;;;21.50;20.60;;;0.80;94.80;;;;;;5046587;28;20112;-80
2022/12/14 03:38:01;;;;;;;20.70;19.90;;;0.80;94.80;;;;;;5046688;28;20021;-80
2022/12/14 03:40:35;;;;;;;20.25;19.45;;;0.80;94.70;;;;;;5047638;28;20400;-80
2022/12/14 03:43:19;;;;;;;20.92;20.13;;;0.70;94.60;;;;;;5046302;28;20403;-80
2022/12/14 03:46:25;;;;;;;21.77;20.88;;;0.70;94.70;;;;;;5046351;28;20216;-80
2022/12/14 03:48:56;;;;;;;21.25;20.42;;;0.70;94.70;;;;;;5046268;28;20028;-79
2022/12/14 03:51:38;;;;;;;23.08;22.17;;;0.70;94.80;;;;;;5047541;28;20032;-80
2022/12/14 03:54:30;;;;;;;23.25;22.35;;;0.70;94.80;;;;;;5047679;28;20044;-80
2022/12/14 03:57:06;;;;;;;25.95;24.95;;;0.70;94.80;;;;;;5047403;28;20500;-80
2022/12/14 04:00:09;;;;;;;26.55;25.55;;;0.70;94.90;;;;;;5047318;28;20025;-79
2022/12/14 04:03:21;;;;;;;25.48;24.48;;;0.70;94.90;;;;;;5038429;28;20040;-80
2022/12/14 04:06:00;;;;;;;25.40;24.40;;;0.80;94.90;;;;;;5046140;28;20046;-80
2022/12/14 04:08:49;;;;;;;25.65;24.65;;;0.80;94.90;;;;;;5046385;28;20025;-80
2022/12/14 04:20:15;;;;;;;27.40;26.30;;;0.80;94.90;;;;;;5047531;28;20406;-80
2022/12/14 04:22:47;;;;;;;26.90;25.90;;;0.90;94.90;;;;;;5047133;28;20045;-77
2022/12/14 04:31:03;;;;;;;29.92;28.80;;;0.90;94.90;;;;;;5049709;28;20039;-77
2022/12/14 04:33:46;;;;;;;30.35;29.15;;;0.90;94.90;;;;;;5051532;28;20067;-77
2022/12/14 04:36:41;;;;;;;31.05;29.85;;;0.90;94.90;;;;;;5051665;28;20060;-77
2022/12/14 04:39:13;;;;;;;30.52;29.33;;;1.00;95.00;;;;;;5047917;28;20037;-77
2022/12/14 04:41:43;;;;;;;30.90;29.70;;;1.00;95.00;;;;;;5049936;28;20033;-77
2022/12/14 04:44:18;;;;;;;30.42;29.23;;;1.20;95.10;;;;;;5050990;28;20078;-77
2022/12/14 04:46:45;;;;;;;31.25;30.05;;;1.30;95.20;;;;;;5051092;28;20045;-77
2022/12/14 04:49:20;;;;;;;33.15;31.85;;;1.50;95.20;;;;;;5049735;28;20047;-77
2022/12/14 04:51:57;;;;;;;33.00;31.70;;;1.60;95.20;;;;;;5050826;28;20109;-77
2022/12/14 04:54:37;;;;;;;31.95;30.75;;;1.80;95.30;;;;;;5051252;28;20052;-77
2022/12/14 04:57:09;;;;;;;31.70;30.50;;;1.90;95.30;;;;;;5050842;28;20090;-76
2022/12/14 04:59:36;;;;;;;31.48;30.27;;;2.10;95.30;;;;;;5050527;28;20025;-78
2022/12/14 05:02:50;;;;;;;30.63;29.42;;;2.20;95.30;;;;;;5032521;28;20401;-77
2022/12/14 05:05:28;;;;;;;32.92;31.70;;;2.30;95.30;;;;;;5049200;28;20120;-77
2022/12/14 05:08:18;;;;;;;29.90;28.80;;;2.40;95.20;;;;;;5050584;28;20029;-78
2022/12/14 05:10:55;;;;;;;29.92;28.83;;;2.50;95.20;;;;;;5049228;28;20025;-77
2022/12/14 05:13:39;;;;;;;29.63;28.52;;;2.50;95.20;;;;;;5050478;28;20029;-77
2022/12/14 05:16:06;;;;;;;29.15;28.05;;;2.60;95.20;;;;;;5050380;28;20061;-77
2022/12/14 05:18:35;;;;;;;29.92;28.83;;;2.70;95.30;;;;;;5032349;28;20074;-78
2022/12/14 05:21:01;;;;;;;30.52;29.33;;;2.70;95.20;;;;;;5032313;28;20038;-78
2022/12/14 05:23:27;;;;;;;30.35;29.15;;;2.70;95.20;;;;;;5049041;28;20032;-78
2022/12/14 05:25:53;;;;;;;30.02;28.88;;;2.70;95.20;;;;;;5032749;28;20036;-78
2022/12/14 05:28:18;;;;;;;28.67;27.58;;;2.80;95.20;;;;;;5032389;28;20029;-78
2022/12/14 05:30:44;;;;;;;25.20;24.20;;;2.80;95.20;;;;;;5049000;28;20507;-78
2022/12/14 05:33:18;;;;;;;24.70;23.70;;;2.80;95.20;;;;;;5032244;28;20313;-78
2022/12/14 05:35:44;;;;;;;25.85;24.85;;;2.80;95.20;;;;;;5048765;28;20033;-78
2022/12/14 05:38:11;;;;;;;22.27;21.38;;;2.80;95.20;;;;;;5048546;28;20380;-78
2022/12/14 05:40:38;;;;;;;21.08;20.27;;;2.80;95.20;;;;;;5032400;28;20393;-78
2022/12/14 05:43:04;;;;;;;;;;;2.90;95.20;;;;;;5048840;28;20022;-77
2022/12/14 05:45:30;;;;;;;17.70;17.00;;;2.90;95.20;;;;;;5049948;28;19912;-78
2022/12/14 05:47:56;;;;;;;19.70;18.90;;;2.90;95.20;;;;;;5048535;28;20026;-78
2022/12/14 05:50:21;;;;;;;18.98;18.17;;;2.90;95.20;;;;;;5048377;28;20033;-78
2022/12/14 05:52:49;;;;;;;18.75;17.95;;;2.90;95.20;;;;;;5048491;28;20025;-76
2022/12/14 05:55:15;;;;;;;21.10;20.30;;;2.80;95.20;;;;;;5048500;28;20040;-78
2022/12/14 05:57:40;;;;;;;18.88;18.08;;;2.70;95.20;;;;;;5048107;28;20024;-78
2022/12/14 06:00:08;;;;;;;16.50;15.80;;;2.70;95.30;;;;;;5048158;28;20125;-78
2022/12/14 06:02:33;;;;;;;15.93;15.23;;;2.70;95.30;;;;;;5031640;28;20048;-78
2022/12/14 06:04:59;;;;;;;17.35;16.65;;;2.80;95.40;;;;;;5048208;28;20060;-78
2022/12/14 06:07:25;;;;;;;16.90;16.20;;;2.80;95.30;;;;;;5048174;28;20029;-78
2022/12/14 06:09:50;;;;;;;16.15;15.45;;;2.80;95.30;;;;;;5048147;28;20160;-78
2022/12/14 06:12:17;;;;;;;17.95;17.25;;;2.70;95.10;;;;;;5031486;28;20504;-78
2022/12/14 06:14:43;;;;;;;17.38;16.67;;;2.60;95.10;;;;;;5049119;28;20041;-78
2022/12/14 06:17:08;;;;;;;19.35;18.55;;;2.50;95.10;;;;;;5047801;28;20036;-78
2022/12/14 06:19:34;;;;;;;19.15;18.35;;;2.40;95.10;;;;;;5047619;28;20036;-78
2022/12/14 06:22:00;;;;;;;17.30;16.60;;;2.30;95.10;;;;;;5031097;28;20049;-78
2022/12/14 06:24:25;;;;;;;16.15;15.45;;;2.30;95.20;;;;;;5031181;28;20021;-78
2022/12/14 06:26:51;;;;;;;12.55;11.95;;;2.40;95.30;;;;;;5048090;28;20603;-78
2022/12/14 06:29:18;;;;;;;11.27;10.77;;;2.50;95.40;;;;;;5031124;28;20045;-78
2022/12/14 06:31:45;;;;;;;10.60;10.10;;;2.50;95.40;;;;;;5048591;28;20134;-77
2022/12/14 06:34:11;;;;;;;10.65;10.15;;;2.60;95.40;;;;;;5047312;28;20036;-78
2022/12/14 06:36:40;;;;;;;11.73;11.23;;;2.60;95.30;;;;;;5048859;28;20479;-78
2022/12/14 06:39:09;;;;;;;13.48;12.88;;;2.60;95.20;;;;;;5047481;28;20090;-78
2022/12/14 06:41:35;;;;;;;13.20;12.60;;;2.50;95.10;;;;;;5047224;28;20033;-78
2022/12/14 06:44:05;;;;;;;14.23;13.63;;;2.40;95.10;;;;;;5047554;28;20504;-77
2022/12/14 06:46:32;;;;;;;11.10;10.60;;;2.30;95.10;;;;;;5047238;28;20025;-78
2022/12/14 06:48:57;;;;;;;;;;;2.30;95.20;;;;;;5047718;28;20025;-78
2022/12/14 06:51:24;;;;;;;10.77;10.27;;;2.30;95.20;;;;;;5047255;28;19908;-78
2022/12/14 06:53:55;;;;;;;10.05;9.55;;;2.20;95.20;;;;;;5047807;28;20028;-78
2022/12/14 06:56:23;;;;;;;9.43;8.95;;;2.20;95.20;;;;;;5047124;28;20060;-78
2022/12/14 06:58:49;;;;;;;8.38;7.97;;;2.30;95.30;;;;;;5046631;28;20115;-78
2022/12/14 07:01:16;;;;;;;7.40;7.00;;;2.40;95.30;;;;;;5030126;28;20036;-77
2022/12/14 07:03:46;;;;;;;7.88;7.47;;;2.40;95.30;;;;;;5047172;28;20349;-76
2022/12/14 07:06:11;;;;;;;6.75;6.35;;;2.50;95.20;;;;;;5046722;28;20048;-78
2022/12/14 07:08:38;;;;;;;6.03;5.72;;;2.50;95.20;;;;;;5046679;28;20057;-78
2022/12/14 07:11:09;;;;;;;6.65;6.25;;;2.60;95.20;;;;;;5046757;28;20497;-77
2022/12/14 07:13:36;;;;;;;5.90;5.60;;;2.60;95.30;;;;;;5047990;28;20485;-78
2022/12/14 07:16:03;;;;;;;;;;;2.60;95.30;;;;;;5047187;28;20400;-77
2022/12/14 07:18:30;;;;;;;5.10;4.80;;;2.60;95.30;;;;;;5047815;28;19970;-79
2022/12/14 07:21:04;;;;;;;5.40;5.10;;;2.70;95.30;;;;;;5047774;28;20397;-80
2022/12/14 07:23:32;;;;;;;4.85;4.55;;;2.60;95.20;;;;;;5046825;28;20029;-79
2022/12/14 07:26:25;;;;;;;4.60;4.30;;;2.60;95.20;;;;;;5046419;28;20021;-80
2022/12/14 07:28:51;;;;;;;4.80;4.50;;;2.60;95.20;;;;;;5046426;28;20123;-80
2022/12/14 07:31:22;;;;;;;5.32;5.03;;;2.60;95.20;;;;;;5046387;28;20036;-80
2022/12/14 07:33:50;;;;;;;4.60;4.30;;;2.50;95.20;;;;;;5046198;28;20393;-80
2022/12/14 07:36:18;;;;;;;4.55;4.25;;;2.50;95.20;;;;;;5047986;28;20035;-79
2022/12/14 07:38:46;;;;;;;4.50;4.20;;;2.50;95.30;;;;;;5045997;28;20029;-80
2022/12/14 07:41:16;;;;;;;4.30;4.00;;;2.50;95.30;;;;;;5045956;28;20103;-79
2022/12/14 07:43:43;;;;;;;4.90;4.60;;;2.50;95.20;;;;;;5046207;28;20100;-80
2022/12/14 07:46:12;;;;;;;4.25;3.95;;;2.40;95.20;;;;;;5047552;28;20390;-79
2022/12/14 07:48:37;;;;;;;4.25;3.95;;;2.30;95.10;;;;;;5048080;28;20025;-79
2022/12/14 07:51:06;;;;;;;3.92;3.63;;;2.30;95.20;;;;;;5029372;28;20036;-80
2022/12/14 07:53:33;;;;;;;3.60;3.30;;;2.20;95.30;;;;;;5047165;28;20029;-80
2022/12/14 07:56:12;;;;;;;4.40;4.10;;;2.20;95.30;;;;;;5047583;28;20060;-80
2022/12/14 07:58:37;;;;;;;4.57;4.28;;;2.20;95.20;;;;;;5046685;28;20025;-80
2022/12/14 08:01:10;;;;;;;4.25;3.95;;;2.10;95.10;;;;;;5046864;28;20056;-79
2022/12/14 08:03:36;;;;;;;4.18;3.88;;;2.00;95.00;;;;;;5045768;28;20113;-79
2022/12/14 08:06:03;;;;;;;;;;;1.90;95.00;;;;;;5046380;28;20048;-79
2022/12/14 08:08:28;;;;;;;3.75;3.45;;;1.80;95.10;;;;;;5047032;28;19908;-81
2022/12/14 08:10:54;;;;;;;3.92;3.63;;;1.80;95.10;;;;;;5045690;28;20040;-80
2022/12/14 08:13:20;;;;;;;3.40;3.10;;;1.80;95.10;;;;;;5045260;28;20037;-78
2022/12/14 08:15:45;;;;;;;3.08;2.88;;;1.80;95.20;;;;;;5047024;28;20033;-80
2022/12/14 08:18:11;;;;;;;3.00;2.80;;;1.70;95.20;;;;;;5045632;28;20037;-80
2022/12/14 08:20:36;;;;;;;2.65;2.45;;;1.80;95.20;;;;;;5045618;28;20021;-80
2022/12/14 08:23:02;;;;;;;2.63;2.42;;;1.80;95.30;;;;;;5047092;28;20215;-79
2022/12/14 08:25:28;;;;;;;2.40;2.20;;;1.80;95.30;;;;;;5047036;28;20429;-80
2022/12/14 08:27:54;;;;;;;2.50;2.30;;;1.80;95.30;;;;;;5029054;28;20037;-79
2022/12/14 08:30:19;;;;;;;1.92;1.83;;;1.90;95.30;;;;;;5028716;28;20046;-79
2022/12/14 08:32:45;;;;;;;2.40;2.20;;;1.90;95.30;;;;;;5028956;28;20041;-79
2022/12/14 08:35:11;;;;;;;2.40;2.20;;;1.90;95.30;;;;;;5045413;28;20037;-79
2022/12/14 08:37:36;;;;;;;1.90;1.80;;;1.80;95.20;;;;;;5044783;28;20496;-78
2022/12/14 08:40:02;;;;;;;1.60;1.50;;;1.80;95.20;;;;;;5046063;28;20124;-81
2022/12/14 08:42:29;;;;;;;1.50;1.40;;;1.80;95.10;;;;;;5028500;28;20022;-80
2022/12/14 08:44:54;;;;;;;1.40;1.30;;;1.70;95.10;;;;;;5028248;28;20067;-80
2022/12/14 08:47:20;;;;;;;1.60;1.50;;;1.70;95.20;;;;;;5044970;28;20408;-80
2022/12/14 08:49:46;;;;;;;1.42;1.33;;;1.70;95.30;;;;;;5045347;28;20032;-81
2022/12/14 08:52:11;;;;;;;1.70;1.60;;;1.80;95.30;;;;;;5044494;28;20040;-80
2022/12/14 08:54:37;;;;;;;1.10;1.10;;;1.80;95.30;;;;;;5046442;28;20068;-79
2022/12/14 08:57:03;;;;;;;1.40;1.30;;;1.80;95.30;;;;;;5028347;28;20087;-79
2022/12/14 08:59:29;;;;;;;1.55;1.45;;;1.80;95.20;;;;;;5045941;28;20043;-80
2022/12/14 09:01:55;;;;;;;1.60;1.50;;;1.80;95.20;;;;;;5044863;28;20087;-79
2022/12/14 09:04:21;;;;;;;1.10;1.10;;;1.70;95.20;;;;;;5046107;28;20481;-78
2022/12/14 09:06:46;;;;;;;1.08;1.08;;;1.70;95.10;;;;;;5028140;28;20076;-79
2022/12/14 09:09:12;;;;;;;1.10;1.10;;;1.70;95.20;;;;;;5045067;28;20029;-79
2022/12/14 09:11:38;;;;;;;1.10;1.10;;;1.70;95.20;;;;;;5046425;28;20400;-79
2022/12/14 09:14:03;;;;;;;1.23;1.15;;;1.70;95.30;;;;;;5045987;28;20033;-78
2022/12/14 09:16:29;;;;;;;1.10;1.10;;;1.80;95.40;;;;;;5029366;28;20108;-79
2022/12/14 09:18:55;;;;;;;1.08;1.08;;;1.90;95.40;;;;;;5048824;28;20119;-79
2022/12/14 09:21:21;;;;;;;0.90;0.90;;;1.90;95.30;;;;;;5048365;28;20049;-79
2022/12/14 09:23:47;;;;;;;0.90;0.90;;;1.90;95.30;;;;;;5048375;28;20121;-79
2022/12/14 09:26:15;;;;;;;0.80;0.80;;;2.00;95.30;;;;;;5049701;28;20040;-77
2022/12/14 09:28:45;;;;;;;0.90;0.90;;;2.00;95.40;;;;;;5051185;28;20057;-78
2022/12/14 09:31:13;;;;;;;0.80;0.80;;;2.10;95.50;;;;;;5049778;28;20330;-79
2022/12/14 09:33:39;;;;;;;0.82;0.82;;;2.20;95.50;;;;;;5048724;28;20043;-79
2022/12/14 09:36:16;;;;;;;0.90;0.90;;;2.30;95.50;;;;;;5050588;28;20591;-79
2022/12/14 09:38:42;;;;;;;0.95;0.95;;;2.30;95.40;;;;;;5049956;28;20032;-79
2022/12/14 09:41:34;;;;;;;;;;;2.40;95.40;;;;;;5051041;28;20021;-79
2022/12/14 09:44:19;;;;;;;0.70;0.70;;;2.40;95.40;;;;;;5046992;28;19959;-80
2022/12/14 09:47:03;;;;;;;0.80;0.80;;;2.40;95.30;;;;;;5048174;28;20056;-79
2022/12/14 09:49:31;;;;;;;0.80;0.80;;;2.40;95.40;;;;;;5050202;28;20025;-78
2022/12/14 09:52:02;;;;;;;0.70;0.70;;;2.50;95.40;;;;;;5051006;28;20025;-79
2022/12/14 09:54:37;;;;;;;0.80;0.80;;;2.50;95.50;;;;;;5051011;28;20104;-80
2022/12/14 09:57:17;;;;;;;0.70;0.70;;;2.60;95.50;;;;;;5051291;28;20029;-80
2022/12/14 09:59:42;;;;;;;0.70;0.70;;;2.80;95.60;;;;;;5051060;28;20052;-80
2022/12/14 10:02:44;;;;;;;0.80;0.80;;;2.80;95.60;;;;;;5050736;28;20055;-78
2022/12/14 10:05:31;;;;;;;0.70;0.70;;;3.00;95.60;;;;;;5043416;28;20401;-81
2022/12/14 10:08:06;;;;;;;0.70;0.70;;;3.00;95.50;;;;;;5031069;28;20430;-80
2022/12/14 10:10:49;;;;;;;0.75;0.75;;;3.10;95.50;;;;;;5031742;28;20517;-82
2022/12/14 10:13:59;;;;;;;0.60;0.60;;;3.10;95.50;;;;;;5031344;28;20021;-82
2022/12/14 10:16:25;;;;;;;0.50;0.50;;;3.20;95.50;;;;;;5015472;28;20030;-82
2022/12/14 10:18:57;;;;;;;0.70;0.70;;;3.20;95.50;;;;;;5028867;28;20040;-81
2022/12/14 10:21:27;;;;;;;0.60;0.60;;;3.20;95.40;;;;;;5038067;28;20048;-82
2022/12/14 10:24:01;;;;;;;0.65;0.65;;;3.10;95.40;;;;;;5051023;28;20028;-82
2022/12/14 10:26:37;;;;;;;0.60;0.60;;;3.00;95.40;;;;;;5051256;28;20021;-82
2022/12/14 10:29:13;;;;;;;0.70;0.70;;;3.00;95.40;;;;;;5032015;28;20132;-82
2022/12/14 10:31:50;;;;;;;0.70;0.70;;;3.10;95.60;;;;;;5037227;28;20033;-82
2022/12/14 10:34:19;;;;;;;0.70;0.70;;;3.20;95.60;;;;;;5034033;28;20401;-83
2022/12/14 10:37:21;;;;;;;0.60;0.60;;;3.20;95.50;;;;;;5013215;28;20061;-82
2022/12/14 10:40:01;;;;;;;0.60;0.60;;;3.20;95.50;;;;;;5030653;28;20029;-82
2022/12/14 10:42:27;;;;;;;0.63;0.63;;;3.10;95.50;;;;;;5036474;28;20083;-83
2022/12/14 10:45:07;;;;;;;0.50;0.50;;;3.10;95.50;;;;;;5047717;28;20032;-83
2022/12/14 10:47:56;;;;;;;0.60;0.60;;;3.10;95.50;;;;;;5038497;28;20820;-82
2022/12/14 10:50:31;;;;;;;0.65;0.65;;;3.10;95.50;;;;;;5032949;28;20032;-82
2022/12/14 10:52:58;;;;;;;0.60;0.60;;;3.10;95.50;;;;;;5045899;28;20021;-83
2022/12/14 10:55:33;;;;;;;0.50;0.50;;;3.00;95.50;;;;;;5025572;28;20033;-83
2022/12/14 10:58:00;;;;;;;0.50;0.50;;;3.10;95.70;;;;;;5056085;28;20037;-83
2022/12/14 11:00:26;;;;;;;0.50;0.50;;;3.40;96.40;;;;;;5029891;28;20148;-83
2022/12/14 11:02:54;;;;;;;0.40;0.40;;;3.70;96.10;;;;;;5029395;28;20117;-82
2022/12/14 11:05:38;;;;;;;0.40;0.40;;;3.70;95.90;;;;;;5034306;28;20385;-84
2022/12/14 11:08:08;;;;;;;0.35;0.35;;;3.70;95.70;;;;;;5049971;28;20029;-77
2022/12/14 11:10:38;;;;;;;0.40;0.40;;;3.70;95.60;;;;;;5035359;28;20127;-79
2022/12/14 11:13:14;;;;;;;0.40;0.40;;;3.60;95.50;;;;;;5035292;28;20504;-80
2022/12/14 11:15:48;;;;;;;0.50;0.50;;;3.50;95.40;;;;;;5028724;28;20063;-72
2022/12/14 11:18:14;;;;;;;0.40;0.40;;;3.40;95.50;;;;;;5030847;28;20438;-82
2022/12/14 11:21:03;;;;;;;0.50;0.50;;;3.30;95.50;;;;;;5029070;28;20080;-77
2022/12/14 11:23:39;;;;;;;0.40;0.40;;;3.20;95.50;;;;;;5030652;28;20512;-80
2022/12/14 11:26:31;;;;;;;0.50;0.50;;;3.10;95.50;;;;;;5028210;28;20021;-77
2022/12/14 11:28:59;;;;;;;0.50;0.50;;;3.10;95.50;;;;;;5017168;28;20040;-79
2022/12/14 11:31:38;;;;;;;0.60;0.60;;;3.10;95.70;;;;;;5029516;28;20029;-78
2022/12/14 11:34:06;;;;;;;0.50;0.50;;;3.30;96.00;;;;;;5030019;28;20022;-80
2022/12/14 11:36:31;;;;;;;0.40;0.40;;;3.80;96.70;;;;;;5027939;28;20036;-76
2022/12/14 11:39:11;;;;;;;0.30;0.30;;;4.60;97.60;;;;;;5029684;28;20034;-81
2022/12/14 11:41:43;;;;;;;0.10;0.10;;;5.50;97.70;;;;;;5030082;28;20018;-79
2022/12/14 11:44:15;;;;;;;0.20;0.20;;;5.90;96.50;;;;;;5029623;28;20079;-78
2022/12/14 11:46:53;;;;;;;0.47;0.30;;;6.10;97.00;;;;;;5028436;28;20041;-81
2022/12/14 11:49:28;;;;;;;0.00;0.00;;;6.60;97.50;;;;;;5028635;28;20063;-78
2022/12/14 11:52:14;;;;;;;0.10;0.10;;;7.20;97.90;;;;;;5029011;28;20075;-79
2022/12/14 11:54:53;;;;;;;0.10;0.10;;;7.40;97.20;;;;;;5027626;28;20022;-79
2022/12/14 11:57:33;;;;;;;0.00;0.00;;;7.60;97.40;;;;;;5027635;28;20021;-78
2022/12/14 12:00:03;;;;;;;0.00;0.00;;;7.70;97.20;;;;;;5028051;28;20021;-78
2022/12/14 12:02:49;;;;;;;0.00;0.00;;;7.70;97.50;;;;;;5029567;28;20079;-81
2022/12/14 12:05:18;;;;;;;0.00;0.00;;;7.90;97.90;;;;;;5036032;28;20377;-84
2022/12/14 12:07:50;;;;;;;0.00;0.00;;;8.10;98.00;;;;;;5041787;28;20072;-83
2022/12/14 12:10:22;;;;;;;0.00;0.00;;;8.30;98.10;;;;;;5049706;28;20052;-84
2022/12/14 12:12:59;;;;;;;0.00;0.00;;;8.50;98.10;;;;;;5043475;28;20479;-84
2022/12/14 12:15:36;;;;;;;0.00;0.00;;;8.80;98.20;;;;;;5031651;28;20052;-84
2022/12/14 12:18:12;;;;;;;;;;;8.90;98.10;;;;;;5037055;28;20444;-83
2022/12/14 12:20:53;;;;;;;0.00;0.00;;;9.00;98.10;;;;;;5039013;28;19959;-78
2022/12/14 12:23:24;;;;;;;0.00;0.00;;;9.10;98.00;;;;;;5030061;28;20018;-80
2022/12/14 12:25:53;;;;;;;0.00;0.00;;;9.10;97.90;;;;;;5027951;28;20018;-79
2022/12/14 12:28:29;;;;;;;0.00;0.00;;;8.90;97.20;;;;;;5028113;28;20518;-77
2022/12/14 12:31:06;;;;;;;0.00;0.00;;;8.40;97.00;;;;;;5026620;28;20057;-78
2022/12/14 12:33:46;;;;;;;0.00;0.00;;;7.90;96.90;;;;;;5027824;28;20029;-81
2022/12/14 12:36:16;;;;;;;0.00;0.00;;;7.50;96.90;;;;;;5027873;28;20021;-82
2022/12/14 12:39:23;;;;;;;0.00;0.00;;;7.20;97.00;;;;;;5029700;28;20030;-83
2022/12/14 12:42:11;;;;;;;0.00;0.00;;;6.90;97.00;;;;;;5028800;28;20057;-77
2022/12/14 12:45:08;;;;;;;0.00;0.00;;;6.60;97.00;;;;;;5028964;28;20100;-81
2022/12/14 12:47:44;;;;;;;0.00;0.00;;;6.20;96.70;;;;;;5028228;28;20061;-83
2022/12/14 12:50:18;;;;;;;0.00;0.00;;;5.90;96.60;;;;;;5028196;28;20033;-80
2022/12/14 12:52:54;;;;;;;0.00;0.00;;;5.60;96.50;;;;;;5032220;28;20036;-82
2022/12/14 12:55:22;;;;;;;0.00;0.00;;;5.40;96.50;;;;;;5032357;28;20108;-78
2022/12/14 12:57:51;;;;;;;0.00;0.00;;;5.40;96.80;;;;;;5032926;28;20465;-80
2022/12/14 13:00:19;;;;;;;0.00;0.00;;;5.40;96.90;;;;;;5030951;28;20029;-83
2022/12/14 13:03:04;;;;;;;0.00;0.00;;;5.30;96.70;;;;;;5032677;28;20093;-77
2022/12/14 13:05:33;;;;;;;0.00;0.00;;;5.30;96.60;;;;;;5033004;28;20018;-74
2022/12/14 13:08:20;;;;;;;0.00;0.00;;;5.20;96.50;;;;;;5031072;28;20025;-81
2022/12/14 13:10:47;;;;;;;0.00;0.00;;;5.10;96.50;;;;;;5030454;28;20450;-81
2022/12/14 13:13:22;;;;;;;0.00;0.00;;;5.00;96.30;;;;;;5015033;28;20038;-77
2022/12/14 13:15:52;;;;;;;0.00;0.00;;;5.00;96.30;;;;;;5034144;28;20021;-82
2022/12/14 13:18:34;;;;;;;0.00;0.00;;;4.90;96.30;;;;;;5032647;28;20589;-83
2022/12/14 13:21:13;;;;;;;0.00;0.00;;;4.80;96.40;;;;;;5033513;28;20088;-84
2022/12/14 13:23:38;;;;;;;0.00;0.00;;;4.80;96.30;;;;;;5033586;28;20026;-83
2022/12/14 13:26:23;;;;;;;0.00;0.00;;;4.80;96.30;;;;;;5004695;28;20023;-82
2022/12/14 13:29:09;;;;;;;0.00;0.00;;;4.90;96.50;;;;;;5053478;28;20033;-79
2022/12/14 13:31:58;;;;;;;0.00;0.00;;;5.10;96.60;;;;;;5050772;28;20400;-80
2022/12/14 13:34:27;;;;;;;0.00;0.00;;;5.30;96.60;;;;;;5046527;28;20033;-83
2022/12/14 13:37:20;;;;;;;0.00;0.00;;;5.40;96.40;;;;;;5030641;28;20025;-79